sensor_id;sensor_type;location;lat;lon;timestamp;temperature;humidity
42037;DHT22;30340;52.004;5.908;2023-03-23T00:01:05;12.70;91.80
42037;DHT22;30340;52.004;5.908;2023-03-23T00:03:31;12.70;91.80
42037;DHT22;30340;52.004;5.908;2023-03-23T00:05:59;12.70;91.70
42037;DHT22;30340;52.004;5.908;2023-03-23T00:08:33;12.70;91.70
42037;DHT22;30340;52.004;5.908;2023-03-23T00:10:59;12.70;91.70
42037;DHT22;30340;52.004;5.908;2023-03-23T00:13:27;12.70;91.70
42037;DHT22;30340;52.004;5.908;2023-03-23T00:15:53;12.70;91.60
42037;DHT22;30340;52.004;5.908;2023-03-23T00:18:20;12.70;91.60
42037;DHT22;30340;52.004;5.908;2023-03-23T00:20:50;12.70;91.60
42037;DHT22;30340;52.004;5.908;2023-03-23T00:23:17;12.70;91.60
42037;DHT22;30340;52.004;5.908;2023-03-23T00:25:47;12.70;91.50
42037;DHT22;30340;52.004;5.908;2023-03-23T00:28:14;12.80;91.50
42037;DHT22;30340;52.004;5.908;2023-03-23T00:30:40;12.80;91.40
42037;DHT22;30340;52.004;5.908;2023-03-23T00:33:08;12.80;91.30
42037;DHT22;30340;52.004;5.908;2023-03-23T00:35:34;12.80;91.30
42037;DHT22;30340;52.004;5.908;2023-03-23T00:38:01;12.80;91.30
42037;DHT22;30340;52.004;5.908;2023-03-23T00:40:27;12.80;91.20
42037;DHT22;30340;52.004;5.908;2023-03-23T00:42:53;12.80;91.20
42037;DHT22;30340;52.004;5.908;2023-03-23T00:45:18;12.80;91.20
42037;DHT22;30340;52.004;5.908;2023-03-23T00:47:44;12.80;91.10
42037;DHT22;30340;52.004;5.908;2023-03-23T00:50:12;12.90;91.10
42037;DHT22;30340;52.004;5.908;2023-03-23T00:52:39;12.90;91.00
42037;DHT22;30340;52.004;5.908;2023-03-23T00:55:06;12.90;91.00
42037;DHT22;30340;52.004;5.908;2023-03-23T00:57:32;12.90;91.00
42037;DHT22;30340;52.004;5.908;2023-03-23T00:59:57;12.90;91.00
42037;DHT22;30340;52.004;5.908;2023-03-23T01:02:23;12.90;91.00
42037;DHT22;30340;52.004;5.908;2023-03-23T01:04:50;12.80;90.90
42037;DHT22;30340;52.004;5.908;2023-03-23T01:07:20;12.80;90.90
42037;DHT22;30340;52.004;5.908;2023-03-23T01:09:47;12.80;91.00
42037;DHT22;30340;52.004;5.908;2023-03-23T01:12:13;12.80;91.00
42037;DHT22;30340;52.004;5.908;2023-03-23T01:14:40;12.80;91.00
42037;DHT22;30340;52.004;5.908;2023-03-23T01:17:05;12.70;90.90
42037;DHT22;30340;52.004;5.908;2023-03-23T01:19:31;12.70;90.90
42037;DHT22;30340;52.004;5.908;2023-03-23T01:21:57;12.70;90.90
42037;DHT22;30340;52.004;5.908;2023-03-23T01:24:22;12.80;90.90
42037;DHT22;30340;52.004;5.908;2023-03-23T01:26:49;12.80;90.90
42037;DHT22;30340;52.004;5.908;2023-03-23T01:29:14;12.80;91.10
42037;DHT22;30340;52.004;5.908;2023-03-23T01:31:40;12.80;90.80
42037;DHT22;30340;52.004;5.908;2023-03-23T01:34:07;12.80;90.80
42037;DHT22;30340;52.004;5.908;2023-03-23T01:36:33;12.80;90.70
42037;DHT22;30340;52.004;5.908;2023-03-23T01:39:00;12.80;90.70
42037;DHT22;30340;52.004;5.908;2023-03-23T01:41:27;12.80;90.70
42037;DHT22;30340;52.004;5.908;2023-03-23T01:46:33;12.90;90.60
42037;DHT22;30340;52.004;5.908;2023-03-23T01:49:03;12.80;90.50
42037;DHT22;30340;52.004;5.908;2023-03-23T01:51:35;12.80;90.50
42037;DHT22;30340;52.004;5.908;2023-03-23T01:54:04;12.80;90.50
42037;DHT22;30340;52.004;5.908;2023-03-23T01:56:56;12.80;90.40
42037;DHT22;30340;52.004;5.908;2023-03-23T01:59:23;12.80;90.40
42037;DHT22;30340;52.004;5.908;2023-03-23T02:01:51;12.80;90.30
42037;DHT22;30340;52.004;5.908;2023-03-23T02:04:18;12.80;90.30
42037;DHT22;30340;52.004;5.908;2023-03-23T02:06:45;12.90;90.20
42037;DHT22;30340;52.004;5.908;2023-03-23T02:09:14;12.90;90.20
42037;DHT22;30340;52.004;5.908;2023-03-23T02:11:42;12.90;90.10
42037;DHT22;30340;52.004;5.908;2023-03-23T02:14:08;12.90;90.10
42037;DHT22;30340;52.004;5.908;2023-03-23T02:22:44;12.90;90.10
42037;DHT22;30340;52.004;5.908;2023-03-23T02:25:45;12.90;90.20
42037;DHT22;30340;52.004;5.908;2023-03-23T02:34:17;12.90;90.30
42037;DHT22;30340;52.004;5.908;2023-03-23T02:37:03;12.90;90.30
42037;DHT22;30340;52.004;5.908;2023-03-23T02:39:34;12.90;90.30
42037;DHT22;30340;52.004;5.908;2023-03-23T02:42:06;12.90;90.30
42037;DHT22;30340;52.004;5.908;2023-03-23T02:44:34;12.90;90.20
42037;DHT22;30340;52.004;5.908;2023-03-23T02:47:04;13.00;90.20
42037;DHT22;30340;52.004;5.908;2023-03-23T02:49:32;13.00;90.20
42037;DHT22;30340;52.004;5.908;2023-03-23T02:52:07;13.00;90.20
42037;DHT22;30340;52.004;5.908;2023-03-23T02:54:34;13.00;90.20
42037;DHT22;30340;52.004;5.908;2023-03-23T02:57:00;13.10;90.20
42037;DHT22;30340;52.004;5.908;2023-03-23T02:59:28;13.10;90.20
42037;DHT22;30340;52.004;5.908;2023-03-23T03:02:02;13.10;90.20
42037;DHT22;30340;52.004;5.908;2023-03-23T03:04:31;13.10;90.20
42037;DHT22;30340;52.004;5.908;2023-03-23T03:09:58;13.10;90.20
42037;DHT22;30340;52.004;5.908;2023-03-23T03:15:35;13.10;90.10
42037;DHT22;30340;52.004;5.908;2023-03-23T03:20:32;13.10;90.10
42037;DHT22;30340;52.004;5.908;2023-03-23T03:23:01;13.10;90.10
42037;DHT22;30340;52.004;5.908;2023-03-23T03:25:28;13.10;90.10
42037;DHT22;30340;52.004;5.908;2023-03-23T03:27:54;13.10;90.10
42037;DHT22;30340;52.004;5.908;2023-03-23T03:30:24;13.10;90.10
42037;DHT22;30340;52.004;5.908;2023-03-23T03:32:52;13.10;90.10
42037;DHT22;30340;52.004;5.908;2023-03-23T03:35:22;13.10;90.00
42037;DHT22;30340;52.004;5.908;2023-03-23T03:37:49;13.10;90.00
42037;DHT22;30340;52.004;5.908;2023-03-23T03:40:19;13.10;90.00
42037;DHT22;30340;52.004;5.908;2023-03-23T03:42:45;13.10;90.00
42037;DHT22;30340;52.004;5.908;2023-03-23T03:45:13;13.10;90.00
42037;DHT22;30340;52.004;5.908;2023-03-23T03:47:39;13.10;90.00
42037;DHT22;30340;52.004;5.908;2023-03-23T03:50:05;13.10;90.10
42037;DHT22;30340;52.004;5.908;2023-03-23T03:52:32;13.10;90.10
42037;DHT22;30340;52.004;5.908;2023-03-23T03:54:58;13.10;90.10
42037;DHT22;30340;52.004;5.908;2023-03-23T03:57:24;13.20;90.10
42037;DHT22;30340;52.004;5.908;2023-03-23T03:59:49;13.20;90.10
42037;DHT22;30340;52.004;5.908;2023-03-23T04:02:16;13.10;90.40
42037;DHT22;30340;52.004;5.908;2023-03-23T04:04:48;13.10;90.10
42037;DHT22;30340;52.004;5.908;2023-03-23T04:07:14;13.10;90.10
42037;DHT22;30340;52.004;5.908;2023-03-23T04:09:43;13.10;90.10
42037;DHT22;30340;52.004;5.908;2023-03-23T04:12:12;13.10;90.10
42037;DHT22;30340;52.004;5.908;2023-03-23T04:14:38;13.10;90.10
42037;DHT22;30340;52.004;5.908;2023-03-23T04:17:03;13.10;90.30
42037;DHT22;30340;52.004;5.908;2023-03-23T04:19:29;13.10;90.00
42037;DHT22;30340;52.004;5.908;2023-03-23T04:21:58;13.10;90.00
42037;DHT22;30340;52.004;5.908;2023-03-23T04:24:24;13.10;89.90
42037;DHT22;30340;52.004;5.908;2023-03-23T04:26:49;13.10;89.90
42037;DHT22;30340;52.004;5.908;2023-03-23T04:29:17;13.10;89.80
42037;DHT22;30340;52.004;5.908;2023-03-23T04:31:43;13.20;89.80
42037;DHT22;30340;52.004;5.908;2023-03-23T04:34:11;13.20;89.60
42037;DHT22;30340;52.004;5.908;2023-03-23T04:36:40;13.20;89.60
42037;DHT22;30340;52.004;5.908;2023-03-23T04:39:06;13.20;89.40
42037;DHT22;30340;52.004;5.908;2023-03-23T04:41:38;13.20;89.30
42037;DHT22;30340;52.004;5.908;2023-03-23T04:44:03;13.20;89.30
42037;DHT22;30340;52.004;5.908;2023-03-23T04:46:29;13.20;89.20
42037;DHT22;30340;52.004;5.908;2023-03-23T04:48:56;13.20;89.70
42037;DHT22;30340;52.004;5.908;2023-03-23T04:51:24;13.20;89.00
42037;DHT22;30340;52.004;5.908;2023-03-23T04:53:50;13.30;88.90
42037;DHT22;30340;52.004;5.908;2023-03-23T04:56:15;13.20;88.80
42037;DHT22;30340;52.004;5.908;2023-03-23T04:58:41;13.30;88.80
42037;DHT22;30340;52.004;5.908;2023-03-23T05:01:09;13.30;88.80
42037;DHT22;30340;52.004;5.908;2023-03-23T05:03:34;13.30;88.50
42037;DHT22;30340;52.004;5.908;2023-03-23T05:06:02;13.30;88.50
42037;DHT22;30340;52.004;5.908;2023-03-23T05:08:27;13.30;88.40
42037;DHT22;30340;52.004;5.908;2023-03-23T05:10:55;13.30;88.30
42037;DHT22;30340;52.004;5.908;2023-03-23T05:13:21;13.30;88.20
42037;DHT22;30340;52.004;5.908;2023-03-23T05:15:47;13.30;87.90
42037;DHT22;30340;52.004;5.908;2023-03-23T05:18:13;13.30;88.00
42037;DHT22;30340;52.004;5.908;2023-03-23T05:20:38;13.30;87.90
42037;DHT22;30340;52.004;5.908;2023-03-23T05:23:04;13.30;87.80
42037;DHT22;30340;52.004;5.908;2023-03-23T05:25:30;13.30;87.80
42037;DHT22;30340;52.004;5.908;2023-03-23T05:27:57;13.30;87.80
42037;DHT22;30340;52.004;5.908;2023-03-23T05:30:24;13.30;87.60
42037;DHT22;30340;52.004;5.908;2023-03-23T05:32:49;13.30;87.70
42037;DHT22;30340;52.004;5.908;2023-03-23T05:35:17;13.30;87.60
42037;DHT22;30340;52.004;5.908;2023-03-23T05:37:43;13.30;87.30
42037;DHT22;30340;52.004;5.908;2023-03-23T05:40:10;13.30;87.40
42037;DHT22;30340;52.004;5.908;2023-03-23T05:42:38;13.30;87.40
42037;DHT22;30340;52.004;5.908;2023-03-23T05:45:07;13.30;87.30
42037;DHT22;30340;52.004;5.908;2023-03-23T05:47:34;13.30;87.30
42037;DHT22;30340;52.004;5.908;2023-03-23T05:50:00;13.30;87.20
42037;DHT22;30340;52.004;5.908;2023-03-23T05:52:26;13.30;87.00
42037;DHT22;30340;52.004;5.908;2023-03-23T05:54:52;13.30;87.10
42037;DHT22;30340;52.004;5.908;2023-03-23T05:57:18;13.30;86.90
42037;DHT22;30340;52.004;5.908;2023-03-23T05:59:47;13.30;86.80
42037;DHT22;30340;52.004;5.908;2023-03-23T06:02:12;13.30;86.80
42037;DHT22;30340;52.004;5.908;2023-03-23T06:04:39;13.30;86.60
42037;DHT22;30340;52.004;5.908;2023-03-23T06:07:06;13.30;86.30
42037;DHT22;30340;52.004;5.908;2023-03-23T06:09:32;13.30;86.40
42037;DHT22;30340;52.004;5.908;2023-03-23T06:11:58;13.30;86.40
42037;DHT22;30340;52.004;5.908;2023-03-23T06:14:23;13.30;86.20
42037;DHT22;30340;52.004;5.908;2023-03-23T06:16:49;13.30;86.30
42037;DHT22;30340;52.004;5.908;2023-03-23T06:19:15;13.30;86.30
42037;DHT22;30340;52.004;5.908;2023-03-23T06:21:41;13.40;86.40
42037;DHT22;30340;52.004;5.908;2023-03-23T06:24:08;13.40;86.50
42037;DHT22;30340;52.004;5.908;2023-03-23T06:26:35;13.40;86.20
42037;DHT22;30340;52.004;5.908;2023-03-23T06:29:03;13.40;86.10
42037;DHT22;30340;52.004;5.908;2023-03-23T06:31:48;13.40;86.10
42037;DHT22;30340;52.004;5.908;2023-03-23T06:34:16;13.40;86.00
42037;DHT22;30340;52.004;5.908;2023-03-23T06:36:43;13.40;86.00
42037;DHT22;30340;52.004;5.908;2023-03-23T06:39:10;13.50;85.90
42037;DHT22;30340;52.004;5.908;2023-03-23T06:41:36;13.40;85.80
42037;DHT22;30340;52.004;5.908;2023-03-23T06:44:02;13.40;85.90
42037;DHT22;30340;52.004;5.908;2023-03-23T06:46:28;13.40;85.80
42037;DHT22;30340;52.004;5.908;2023-03-23T06:48:54;13.40;86.00
42037;DHT22;30340;52.004;5.908;2023-03-23T06:51:20;13.40;85.80
42037;DHT22;30340;52.004;5.908;2023-03-23T06:53:46;13.40;86.00
42037;DHT22;30340;52.004;5.908;2023-03-23T06:56:12;13.40;85.80
42037;DHT22;30340;52.004;5.908;2023-03-23T06:58:38;13.40;85.90
42037;DHT22;30340;52.004;5.908;2023-03-23T07:01:04;13.40;85.80
42037;DHT22;30340;52.004;5.908;2023-03-23T07:03:31;13.40;85.70
42037;DHT22;30340;52.004;5.908;2023-03-23T07:05:57;13.40;85.70
42037;DHT22;30340;52.004;5.908;2023-03-23T07:08:23;13.40;85.80
42037;DHT22;30340;52.004;5.908;2023-03-23T07:10:54;13.40;85.80
42037;DHT22;30340;52.004;5.908;2023-03-23T07:13:20;13.40;86.00
42037;DHT22;30340;52.004;5.908;2023-03-23T07:15:47;13.40;86.10
42037;DHT22;30340;52.004;5.908;2023-03-23T07:18:13;13.40;86.10
42037;DHT22;30340;52.004;5.908;2023-03-23T07:20:39;13.40;86.10
42037;DHT22;30340;52.004;5.908;2023-03-23T07:23:04;13.40;86.10
42037;DHT22;30340;52.004;5.908;2023-03-23T07:25:34;13.40;86.00
42037;DHT22;30340;52.004;5.908;2023-03-23T07:28:00;13.40;86.00
42037;DHT22;30340;52.004;5.908;2023-03-23T07:30:26;13.40;85.90
42037;DHT22;30340;52.004;5.908;2023-03-23T07:32:54;13.40;85.90
42037;DHT22;30340;52.004;5.908;2023-03-23T07:35:20;13.50;85.90
42037;DHT22;30340;52.004;5.908;2023-03-23T07:37:45;13.50;85.90
42037;DHT22;30340;52.004;5.908;2023-03-23T07:40:14;13.50;85.90
42037;DHT22;30340;52.004;5.908;2023-03-23T07:42:41;13.50;85.70
42037;DHT22;30340;52.004;5.908;2023-03-23T07:45:08;13.50;85.80
42037;DHT22;30340;52.004;5.908;2023-03-23T07:47:34;13.40;85.60
42037;DHT22;30340;52.004;5.908;2023-03-23T07:50:00;13.40;85.60
42037;DHT22;30340;52.004;5.908;2023-03-23T07:52:25;13.40;85.40
42037;DHT22;30340;52.004;5.908;2023-03-23T07:54:51;13.30;85.50
42037;DHT22;30340;52.004;5.908;2023-03-23T07:57:17;13.30;85.30
42037;DHT22;30340;52.004;5.908;2023-03-23T07:59:43;13.30;85.40
42037;DHT22;30340;52.004;5.908;2023-03-23T08:02:09;13.30;85.40
42037;DHT22;30340;52.004;5.908;2023-03-23T08:04:35;13.30;85.50
42037;DHT22;30340;52.004;5.908;2023-03-23T08:07:03;13.20;85.50
42037;DHT22;30340;52.004;5.908;2023-03-23T08:09:30;13.20;85.60
42037;DHT22;30340;52.004;5.908;2023-03-23T08:11:55;13.10;85.80
42037;DHT22;30340;52.004;5.908;2023-03-23T08:14:21;13.10;85.90
42037;DHT22;30340;52.004;5.908;2023-03-23T08:16:47;13.10;86.20
42037;DHT22;30340;52.004;5.908;2023-03-23T08:19:13;13.10;86.30
42037;DHT22;30340;52.004;5.908;2023-03-23T08:21:39;13.00;86.50
42037;DHT22;30340;52.004;5.908;2023-03-23T08:24:05;13.10;86.70
42037;DHT22;30340;52.004;5.908;2023-03-23T08:26:31;13.10;86.80
42037;DHT22;30340;52.004;5.908;2023-03-23T08:28:57;13.20;86.90
42037;DHT22;30340;52.004;5.908;2023-03-23T08:31:23;13.10;86.80
42037;DHT22;30340;52.004;5.908;2023-03-23T08:33:48;13.10;86.90
42037;DHT22;30340;52.004;5.908;2023-03-23T08:36:14;13.20;86.90
42037;DHT22;30340;52.004;5.908;2023-03-23T08:38:40;13.20;87.60
42037;DHT22;30340;52.004;5.908;2023-03-23T08:41:06;13.20;87.10
42037;DHT22;30340;52.004;5.908;2023-03-23T08:43:33;13.20;87.30
42037;DHT22;30340;52.004;5.908;2023-03-23T08:45:59;13.20;87.50
42037;DHT22;30340;52.004;5.908;2023-03-23T08:48:26;13.20;87.50
42037;DHT22;30340;52.004;5.908;2023-03-23T08:50:53;13.20;87.50
42037;DHT22;30340;52.004;5.908;2023-03-23T08:53:18;13.30;87.30
42037;DHT22;30340;52.004;5.908;2023-03-23T08:55:46;13.40;87.10
42037;DHT22;30340;52.004;5.908;2023-03-23T08:58:12;13.40;87.00
42037;DHT22;30340;52.004;5.908;2023-03-23T09:00:38;13.30;86.90
42037;DHT22;30340;52.004;5.908;2023-03-23T09:03:04;13.40;87.00
42037;DHT22;30340;52.004;5.908;2023-03-23T09:05:30;13.40;86.80
42037;DHT22;30340;52.004;5.908;2023-03-23T09:07:57;13.50;86.80
42037;DHT22;30340;52.004;5.908;2023-03-23T09:10:25;13.40;86.70
42037;DHT22;30340;52.004;5.908;2023-03-23T09:12:52;13.40;86.60
42037;DHT22;30340;52.004;5.908;2023-03-23T09:15:18;13.40;86.60
42037;DHT22;30340;52.004;5.908;2023-03-23T09:17:46;13.40;86.30
42037;DHT22;30340;52.004;5.908;2023-03-23T09:20:14;13.40;86.10
42037;DHT22;30340;52.004;5.908;2023-03-23T09:22:44;13.40;86.00
42037;DHT22;30340;52.004;5.908;2023-03-23T09:25:13;13.50;85.70
42037;DHT22;30340;52.004;5.908;2023-03-23T09:27:40;13.60;85.70
42037;DHT22;30340;52.004;5.908;2023-03-23T09:30:09;13.60;85.10
42037;DHT22;30340;52.004;5.908;2023-03-23T09:32:36;13.70;84.80
42037;DHT22;30340;52.004;5.908;2023-03-23T09:35:04;13.80;84.20
42037;DHT22;30340;52.004;5.908;2023-03-23T09:37:32;13.70;84.20
42037;DHT22;30340;52.004;5.908;2023-03-23T09:39:59;13.70;84.00
42037;DHT22;30340;52.004;5.908;2023-03-23T09:45:25;13.80;84.00
42037;DHT22;30340;52.004;5.908;2023-03-23T09:50:31;13.90;83.40
42037;DHT22;30340;52.004;5.908;2023-03-23T09:53:05;13.90;83.50
42037;DHT22;30340;52.004;5.908;2023-03-23T09:55:34;14.00;83.60
42037;DHT22;30340;52.004;5.908;2023-03-23T09:58:24;14.20;83.50
42037;DHT22;30340;52.004;5.908;2023-03-23T10:01:06;14.20;82.90
42037;DHT22;30340;52.004;5.908;2023-03-23T10:03:40;14.20;82.70
42037;DHT22;30340;52.004;5.908;2023-03-23T10:06:13;14.30;82.70
42037;DHT22;30340;52.004;5.908;2023-03-23T10:08:45;14.30;82.20
42037;DHT22;30340;52.004;5.908;2023-03-23T10:11:20;14.30;82.20
42037;DHT22;30340;52.004;5.908;2023-03-23T10:13:53;14.20;82.40
42037;DHT22;30340;52.004;5.908;2023-03-23T10:16:26;14.30;82.10
42037;DHT22;30340;52.004;5.908;2023-03-23T10:21:27;14.40;82.00
42037;DHT22;30340;52.004;5.908;2023-03-23T10:24:02;14.40;82.10
42037;DHT22;30340;52.004;5.908;2023-03-23T10:29:22;14.80;80.90
42037;DHT22;30340;52.004;5.908;2023-03-23T10:37:11;14.90;80.00
42037;DHT22;30340;52.004;5.908;2023-03-23T10:39:57;15.00;80.10
42037;DHT22;30340;52.004;5.908;2023-03-23T10:42:29;15.00;79.90
42037;DHT22;30340;52.004;5.908;2023-03-23T10:44:58;14.90;78.80
42037;DHT22;30340;52.004;5.908;2023-03-23T10:47:24;14.90;79.10
42037;DHT22;30340;52.004;5.908;2023-03-23T10:49:54;14.90;78.90
42037;DHT22;30340;52.004;5.908;2023-03-23T10:54:51;14.90;79.00
42037;DHT22;30340;52.004;5.908;2023-03-23T10:59:49;14.80;78.20
42037;DHT22;30340;52.004;5.908;2023-03-23T11:02:17;14.90;77.80
42037;DHT22;30340;52.004;5.908;2023-03-23T11:05:06;14.80;77.30
42037;DHT22;30340;52.004;5.908;2023-03-23T11:07:34;14.90;77.40
42037;DHT22;30340;52.004;5.908;2023-03-23T11:10:16;15.00;77.60
42037;DHT22;30340;52.004;5.908;2023-03-23T11:12:45;15.00;76.80
42037;DHT22;30340;52.004;5.908;2023-03-23T11:18:20;15.00;76.70
42037;DHT22;30340;52.004;5.908;2023-03-23T11:20:49;15.00;76.30
42037;DHT22;30340;52.004;5.908;2023-03-23T11:23:21;15.10;76.20
42037;DHT22;30340;52.004;5.908;2023-03-23T11:28:37;15.30;76.70
42037;DHT22;30340;52.004;5.908;2023-03-23T11:31:06;15.40;75.60
42037;DHT22;30340;52.004;5.908;2023-03-23T11:33:46;15.60;75.80
42037;DHT22;30340;52.004;5.908;2023-03-23T11:36:12;15.70;75.10
42037;DHT22;30340;52.004;5.908;2023-03-23T11:38:40;15.90;75.30
42037;DHT22;30340;52.004;5.908;2023-03-23T11:41:12;15.90;75.00
42037;DHT22;30340;52.004;5.908;2023-03-23T11:43:45;16.00;74.30
42037;DHT22;30340;52.004;5.908;2023-03-23T11:47:11;16.10;74.90
42037;DHT22;30340;52.004;5.908;2023-03-23T11:51:51;16.10;73.80
42037;DHT22;30340;52.004;5.908;2023-03-23T11:54:40;16.00;74.20
42037;DHT22;30340;52.004;5.908;2023-03-23T11:57:11;16.00;74.20
42037;DHT22;30340;52.004;5.908;2023-03-23T11:59:39;16.00;74.20
42037;DHT22;30340;52.004;5.908;2023-03-23T12:02:24;16.00;74.30
42037;DHT22;30340;52.004;5.908;2023-03-23T12:16:31;15.80;74.30
42037;DHT22;30340;52.004;5.908;2023-03-23T12:19:03;15.80;74.50
42037;DHT22;30340;52.004;5.908;2023-03-23T12:22:28;15.80;74.70
42037;DHT22;30340;52.004;5.908;2023-03-23T12:24:50;15.80;74.60
42037;DHT22;30340;52.004;5.908;2023-03-23T12:27:21;15.70;74.60
42037;DHT22;30340;52.004;5.908;2023-03-23T12:32:25;15.70;74.60
42037;DHT22;30340;52.004;5.908;2023-03-23T12:35:21;15.80;75.00
42037;DHT22;30340;52.004;5.908;2023-03-23T12:43:59;15.80;75.20
42037;DHT22;30340;52.004;5.908;2023-03-23T12:54:32;15.80;76.00
42037;DHT22;30340;52.004;5.908;2023-03-23T12:57:26;15.70;76.20
42037;DHT22;30340;52.004;5.908;2023-03-23T13:00:20;15.60;76.30
42037;DHT22;30340;52.004;5.908;2023-03-23T13:03:05;15.20;76.70
42037;DHT22;30340;52.004;5.908;2023-03-23T13:05:51;14.80;77.90
42037;DHT22;30340;52.004;5.908;2023-03-23T13:08:35;14.60;78.80
42037;DHT22;30340;52.004;5.908;2023-03-23T13:11:04;14.40;79.50
42037;DHT22;30340;52.004;5.908;2023-03-23T13:13:52;14.30;80.60
42037;DHT22;30340;52.004;5.908;2023-03-23T13:16:35;14.30;80.80
42037;DHT22;30340;52.004;5.908;2023-03-23T13:19:24;14.30;80.60
42037;DHT22;30340;52.004;5.908;2023-03-23T13:22:01;14.30;80.80
42037;DHT22;30340;52.004;5.908;2023-03-23T13:24:29;14.30;80.80
42037;DHT22;30340;52.004;5.908;2023-03-23T13:26:55;14.30;80.80
42037;DHT22;30340;52.004;5.908;2023-03-23T13:29:24;14.20;81.00
42037;DHT22;30340;52.004;5.908;2023-03-23T13:32:03;14.20;81.30
42037;DHT22;30340;52.004;5.908;2023-03-23T13:34:31;14.30;82.20
42037;DHT22;30340;52.004;5.908;2023-03-23T13:37:05;14.40;81.50
42037;DHT22;30340;52.004;5.908;2023-03-23T13:39:36;14.60;81.30
42037;DHT22;30340;52.004;5.908;2023-03-23T13:42:20;14.70;81.20
42037;DHT22;30340;52.004;5.908;2023-03-23T13:50:03;14.90;81.10
42037;DHT22;30340;52.004;5.908;2023-03-23T13:55:38;15.00;81.10
42037;DHT22;30340;52.004;5.908;2023-03-23T14:11:09;15.10;81.20
42037;DHT22;30340;52.004;5.908;2023-03-23T14:14:06;15.10;81.40
42037;DHT22;30340;52.004;5.908;2023-03-23T14:16:39;15.00;81.50
42037;DHT22;30340;52.004;5.908;2023-03-23T14:19:24;15.00;81.50
42037;DHT22;30340;52.004;5.908;2023-03-23T14:21:56;14.90;81.70
42037;DHT22;30340;52.004;5.908;2023-03-23T14:24:28;14.90;81.90
42037;DHT22;30340;52.004;5.908;2023-03-23T14:27:14;14.90;82.00
42037;DHT22;30340;52.004;5.908;2023-03-23T14:29:40;14.80;82.20
42037;DHT22;30340;52.004;5.908;2023-03-23T14:32:12;14.80;82.40
42037;DHT22;30340;52.004;5.908;2023-03-23T14:34:38;14.70;82.50
42037;DHT22;30340;52.004;5.908;2023-03-23T14:37:04;14.80;82.50
42037;DHT22;30340;52.004;5.908;2023-03-23T14:39:34;14.80;82.40
42037;DHT22;30340;52.004;5.908;2023-03-23T14:42:29;14.90;82.40
42037;DHT22;30340;52.004;5.908;2023-03-23T14:44:56;15.00;82.20
42037;DHT22;30340;52.004;5.908;2023-03-23T14:47:42;15.10;82.10
42037;DHT22;30340;52.004;5.908;2023-03-23T14:53:00;15.50;81.40
42037;DHT22;30340;52.004;5.908;2023-03-23T14:55:27;15.50;81.00
42037;DHT22;30340;52.004;5.908;2023-03-23T14:58:05;15.50;81.10
42037;DHT22;30340;52.004;5.908;2023-03-23T15:00:42;15.60;81.00
42037;DHT22;30340;52.004;5.908;2023-03-23T15:03:13;15.70;80.50
42037;DHT22;30340;52.004;5.908;2023-03-23T15:05:58;15.80;80.40
42037;DHT22;30340;52.004;5.908;2023-03-23T15:08:33;15.80;80.20
42037;DHT22;30340;52.004;5.908;2023-03-23T15:13:48;15.90;79.80
42037;DHT22;30340;52.004;5.908;2023-03-23T15:16:19;16.00;79.60
42037;DHT22;30340;52.004;5.908;2023-03-23T15:18:55;16.00;79.40
42037;DHT22;30340;52.004;5.908;2023-03-23T15:21:32;16.10;79.10
42037;DHT22;30340;52.004;5.908;2023-03-23T15:24:00;16.10;78.90
42037;DHT22;30340;52.004;5.908;2023-03-23T15:26:32;16.10;78.80
42037;DHT22;30340;52.004;5.908;2023-03-23T15:29:19;16.10;78.30
42037;DHT22;30340;52.004;5.908;2023-03-23T15:31:55;16.00;77.40
42037;DHT22;30340;52.004;5.908;2023-03-23T15:34:36;15.90;77.20
42037;DHT22;30340;52.004;5.908;2023-03-23T15:37:17;16.00;77.20
42037;DHT22;30340;52.004;5.908;2023-03-23T15:39:44;15.90;77.20
42037;DHT22;30340;52.004;5.908;2023-03-23T15:42:22;16.00;77.00
42037;DHT22;30340;52.004;5.908;2023-03-23T15:47:37;15.90;77.00
42037;DHT22;30340;52.004;5.908;2023-03-23T15:50:18;15.90;77.40
42037;DHT22;30340;52.004;5.908;2023-03-23T15:52:45;15.80;78.00
42037;DHT22;30340;52.004;5.908;2023-03-23T15:55:27;15.80;77.40
42037;DHT22;30340;52.004;5.908;2023-03-23T15:57:55;15.80;77.60
42037;DHT22;30340;52.004;5.908;2023-03-23T16:00:23;15.90;77.60
42037;DHT22;30340;52.004;5.908;2023-03-23T16:02:54;15.90;77.50
42037;DHT22;30340;52.004;5.908;2023-03-23T16:05:20;15.90;77.40
42037;DHT22;30340;52.004;5.908;2023-03-23T16:07:46;15.90;77.50
42037;DHT22;30340;52.004;5.908;2023-03-23T16:10:17;15.90;77.60
42037;DHT22;30340;52.004;5.908;2023-03-23T16:12:43;15.90;77.60
42037;DHT22;30340;52.004;5.908;2023-03-23T16:15:09;15.90;77.50
42037;DHT22;30340;52.004;5.908;2023-03-23T16:17:35;15.90;77.30
42037;DHT22;30340;52.004;5.908;2023-03-23T16:20:01;15.90;76.70
42037;DHT22;30340;52.004;5.908;2023-03-23T16:22:28;15.90;76.70
42037;DHT22;30340;52.004;5.908;2023-03-23T16:24:54;15.90;76.80
42037;DHT22;30340;52.004;5.908;2023-03-23T16:27:20;15.90;76.90
42037;DHT22;30340;52.004;5.908;2023-03-23T16:29:46;15.90;76.90
42037;DHT22;30340;52.004;5.908;2023-03-23T16:32:12;15.90;76.90
42037;DHT22;30340;52.004;5.908;2023-03-23T16:34:37;15.90;76.50
42037;DHT22;30340;52.004;5.908;2023-03-23T16:37:03;15.90;76.10
42037;DHT22;30340;52.004;5.908;2023-03-23T16:39:28;15.80;76.00
42037;DHT22;30340;52.004;5.908;2023-03-23T16:41:54;15.80;76.10
42037;DHT22;30340;52.004;5.908;2023-03-23T16:44:20;15.80;76.20
42037;DHT22;30340;52.004;5.908;2023-03-23T16:46:45;15.80;76.30
42037;DHT22;30340;52.004;5.908;2023-03-23T16:49:11;15.80;76.40
42037;DHT22;30340;52.004;5.908;2023-03-23T16:51:36;15.70;76.30
42037;DHT22;30340;52.004;5.908;2023-03-23T16:54:02;15.70;76.70
42037;DHT22;30340;52.004;5.908;2023-03-23T16:56:28;15.60;76.50
42037;DHT22;30340;52.004;5.908;2023-03-23T16:58:53;15.50;76.00
42037;DHT22;30340;52.004;5.908;2023-03-23T17:01:19;15.50;76.20
42037;DHT22;30340;52.004;5.908;2023-03-23T17:03:44;15.40;76.40
42037;DHT22;30340;52.004;5.908;2023-03-23T17:06:10;15.40;76.60
42037;DHT22;30340;52.004;5.908;2023-03-23T17:08:35;15.40;76.20
42037;DHT22;30340;52.004;5.908;2023-03-23T17:11:01;15.30;75.00
42037;DHT22;30340;52.004;5.908;2023-03-23T17:13:27;15.30;75.20
42037;DHT22;30340;52.004;5.908;2023-03-23T17:15:54;15.30;75.00
42037;DHT22;30340;52.004;5.908;2023-03-23T17:18:21;15.20;75.10
42037;DHT22;30340;52.004;5.908;2023-03-23T17:20:48;15.20;75.30
42037;DHT22;30340;52.004;5.908;2023-03-23T17:23:13;15.10;75.60
42037;DHT22;30340;52.004;5.908;2023-03-23T17:25:39;15.20;75.50
42037;DHT22;30340;52.004;5.908;2023-03-23T17:28:05;15.10;75.50
42037;DHT22;30340;52.004;5.908;2023-03-23T17:30:31;15.10;75.80
42037;DHT22;30340;52.004;5.908;2023-03-23T17:32:56;15.10;75.80
42037;DHT22;30340;52.004;5.908;2023-03-23T17:35:22;15.00;76.00